In Rescue
 
Open Full Screen Window  High Contrast Mode
Wind Gusting 16 knots
13
July 22, 2019 5:10 PM EDT
Weather Information
Wind Direction
  330 °
Wind Speed
  13 kt (15 mph)
Wind Gust
  16 kt (18 mph)
Altimeter
29.98 in
Visibility
10 SM
Temperature
22° C
72° F
Dewpoint
12° C
54° F
Humidity
53%
1hr Rain Fall
00.00 in.
24hr Rain Fall
00.71 in.
Sky Condition
Clear
VFR

METAR KJYM 222110Z AUTO 33013G16KT 10SM CLR 22/12 A2998 RMK AO2 T02220123

FAA Disclaimer: The data displayed is for advisory purposes only and is not to be used for flight planning or operations.